createdAt,value
2019-03-05T00:00:43.565Z,4.60
2019-03-05T00:03:11.793Z,3.85
2019-03-05T00:05:40.062Z,4.08
2019-03-05T00:08:08.310Z,3.95
2019-03-05T00:10:36.639Z,3.62
2019-03-05T00:13:04.876Z,3.72
2019-03-05T00:15:33.131Z,4.20
2019-03-05T00:18:01.395Z,3.92
2019-03-05T00:20:29.651Z,3.37
2019-03-05T00:22:57.915Z,3.67
2019-03-05T00:25:29.456Z,3.47
2019-03-05T00:28:00.965Z,4.08
2019-03-05T00:30:32.337Z,3.80
2019-03-05T00:33:03.854Z,3.87
2019-03-05T00:35:35.480Z,4.08
2019-03-05T00:38:07.028Z,3.70
2019-03-05T00:40:38.604Z,4.28
2019-03-05T00:43:10.258Z,4.17
2019-03-05T00:45:59.610Z,3.60
2019-03-05T00:48:31.135Z,3.20
2019-03-05T00:51:02.728Z,3.77
2019-03-05T00:53:34.219Z,3.60
2019-03-05T00:56:05.864Z,3.60
2019-03-05T00:58:37.455Z,3.27
2019-03-05T01:01:08.993Z,3.85
2019-03-05T01:03:40.517Z,3.67
2019-03-05T01:06:12.071Z,3.83
2019-03-05T01:08:40.377Z,3.58
2019-03-05T01:11:08.700Z,4.15
2019-03-05T01:13:36.983Z,2.92
2019-03-05T01:16:06.290Z,3.25
2019-03-05T01:18:34.570Z,3.12
2019-03-05T01:21:02.828Z,2.67
2019-03-05T01:23:31.065Z,2.47
2019-03-05T01:25:59.319Z,2.42
2019-03-05T01:28:27.602Z,2.90
2019-03-05T01:30:57.578Z,3.00
2019-03-05T01:33:27.529Z,2.72
2019-03-05T01:35:57.432Z,3.47
2019-03-05T01:38:25.702Z,3.02
2019-03-05T01:40:55.630Z,3.62
2019-03-05T01:43:23.976Z,3.50
2019-03-05T01:45:52.286Z,2.85
2019-03-05T01:48:20.598Z,2.92
2019-03-05T01:50:49.198Z,2.62
2019-03-05T01:53:17.597Z,2.50
2019-03-05T01:55:46.027Z,2.75
2019-03-05T01:58:14.302Z,3.70
2019-03-05T02:00:42.544Z,2.77
2019-03-05T02:03:10.798Z,2.92
2019-03-05T02:05:39.048Z,3.30
2019-03-05T02:08:07.297Z,3.05
2019-03-05T02:10:35.527Z,2.72
2019-03-05T02:13:03.873Z,3.20
2019-03-05T02:15:32.199Z,3.17
2019-03-05T02:18:00.545Z,2.83
2019-03-05T02:20:28.791Z,2.83
2019-03-05T02:23:00.290Z,2.92
2019-03-05T02:25:31.803Z,2.17
2019-03-05T02:28:03.327Z,2.20
2019-03-05T02:30:34.836Z,2.90
2019-03-05T02:33:06.357Z,2.58
2019-03-05T02:35:37.871Z,2.75
2019-03-05T02:38:09.390Z,2.77
2019-03-05T02:40:40.914Z,2.80
2019-03-05T02:43:12.462Z,2.55
2019-03-05T02:45:44.051Z,2.52
2019-03-05T02:48:15.564Z,2.80
2019-03-05T02:50:47.114Z,2.55
2019-03-05T02:53:18.661Z,2.80
2019-03-05T02:58:49.622Z,2.85
2019-03-05T03:01:19.527Z,2.52
2019-03-05T03:03:49.426Z,2.60
2019-03-05T03:06:19.302Z,2.33
2019-03-05T03:08:47.562Z,2.25
2019-03-05T03:11:15.882Z,2.15
2019-03-05T03:13:44.163Z,2.33
2019-03-05T03:16:12.505Z,1.82
2019-03-05T03:18:40.815Z,2.17
2019-03-05T03:21:09.092Z,2.58
2019-03-05T03:23:37.360Z,2.60
2019-03-05T03:26:05.675Z,2.08
2019-03-05T03:28:33.941Z,2.12
2019-03-05T03:31:02.256Z,1.92
2019-03-05T03:33:30.590Z,2.87
2019-03-05T03:35:58.823Z,2.30
2019-03-05T03:38:27.113Z,2.50
2019-03-05T03:40:55.591Z,2.20
2019-03-05T03:43:23.852Z,2.10
2019-03-05T03:45:52.155Z,2.83
2019-03-05T03:48:20.419Z,2.60
2019-03-05T03:50:48.676Z,2.52
2019-03-05T03:53:16.926Z,2.67
2019-03-05T03:55:45.168Z,2.30
2019-03-05T03:58:13.585Z,1.98
2019-03-05T04:00:41.933Z,2.45
2019-03-05T04:03:10.253Z,2.45
2019-03-05T04:05:38.508Z,2.30
2019-03-05T04:08:10.180Z,2.20
2019-03-05T04:10:36.713Z,2.50
2019-03-05T04:13:04.987Z,2.20
2019-03-05T04:15:33.231Z,2.33
2019-03-05T04:18:01.571Z,2.60
2019-03-05T04:20:31.540Z,2.75
2019-03-05T04:23:02.276Z,2.62
2019-03-05T04:25:30.615Z,2.15
2019-03-05T04:28:00.074Z,2.00
2019-03-05T04:30:28.318Z,2.05
2019-03-05T04:32:56.580Z,2.70
2019-03-05T04:35:24.850Z,2.15
2019-03-05T04:37:53.144Z,2.60
2019-03-05T04:40:21.470Z,2.45
2019-03-05T04:42:49.730Z,2.85
2019-03-05T04:45:21.230Z,2.40
2019-03-05T04:47:49.483Z,2.60
2019-03-05T04:50:19.384Z,2.58
2019-03-05T04:52:47.645Z,2.40
2019-03-05T04:55:15.915Z,2.75
2019-03-05T04:57:44.199Z,2.35
2019-03-05T05:00:13.362Z,2.35
2019-03-05T05:02:41.649Z,2.92
2019-03-05T05:05:09.963Z,2.90
2019-03-05T05:07:38.217Z,2.33
2019-03-05T05:10:08.113Z,2.15
2019-03-05T05:12:36.363Z,1.87
2019-03-05T05:15:08.168Z,2.17
2019-03-05T05:17:36.516Z,1.92
2019-03-05T05:20:06.427Z,2.20
2019-03-05T05:22:34.816Z,2.20
2019-03-05T05:25:03.753Z,2.67
2019-03-05T05:27:32.288Z,2.98
2019-03-05T05:30:00.630Z,1.92
2019-03-05T05:32:28.915Z,2.52
2019-03-05T05:34:57.169Z,2.22
2019-03-05T05:37:25.428Z,2.08
2019-03-05T05:39:56.935Z,2.08
2019-03-05T05:42:25.278Z,1.90
2019-03-05T05:44:53.600Z,2.25
2019-03-05T05:47:22.004Z,2.30
2019-03-05T05:49:50.412Z,2.20
2019-03-05T05:52:18.737Z,1.90
2019-03-05T06:06:57.669Z,2.30
2019-03-05T06:09:25.933Z,1.92
2019-03-05T06:11:54.189Z,2.22
2019-03-05T06:14:22.434Z,2.77
2019-03-05T06:16:50.679Z,2.33
2019-03-05T06:19:19.020Z,2.52
2019-03-05T06:21:47.278Z,1.75
2019-03-05T06:24:15.550Z,2.00
2019-03-05T06:26:43.822Z,2.65
2019-03-05T06:29:12.176Z,2.37
2019-03-05T06:31:40.516Z,2.33
2019-03-05T06:34:08.770Z,2.15
2019-03-05T06:36:40.299Z,2.00
2019-03-05T06:39:08.554Z,2.50
2019-03-05T06:41:36.791Z,2.20
2019-03-05T06:44:05.060Z,2.30
2019-03-05T06:46:33.321Z,2.22
2019-03-05T06:49:01.554Z,2.30
2019-03-05T06:51:29.822Z,2.12
2019-03-05T06:53:58.067Z,1.70
2019-03-05T06:56:26.335Z,2.12
2019-03-05T06:58:54.583Z,2.60
2019-03-05T07:01:22.851Z,2.30
2019-03-05T07:03:51.203Z,1.80
2019-03-05T07:06:22.767Z,2.60
2019-03-05T07:08:54.296Z,2.40
2019-03-05T07:11:25.828Z,2.30
2019-03-05T07:13:57.348Z,2.42
2019-03-05T07:16:28.863Z,2.25
2019-03-05T07:18:58.894Z,2.33
2019-03-05T07:21:30.404Z,2.75
2019-03-05T07:24:01.987Z,2.52
2019-03-05T07:26:30.229Z,2.58
2019-03-05T07:28:58.569Z,2.40
2019-03-05T07:31:26.801Z,2.30
2019-03-05T07:33:55.072Z,2.02
2019-03-05T07:36:23.449Z,2.12
2019-03-05T07:38:51.798Z,2.30
2019-03-05T07:41:20.070Z,2.58
2019-03-05T07:43:48.362Z,2.80
2019-03-05T07:46:16.694Z,2.42
2019-03-05T07:48:44.923Z,2.67
2019-03-05T07:51:13.367Z,2.45
2019-03-05T07:53:41.632Z,2.42
2019-03-05T07:56:09.886Z,2.08
2019-03-05T07:58:38.152Z,2.22
2019-03-05T08:01:06.385Z,2.22
2019-03-05T08:03:34.661Z,1.75
2019-03-05T08:06:02.979Z,2.12
2019-03-05T08:08:34.474Z,2.45
2019-03-05T08:11:02.722Z,2.10
2019-03-05T08:13:31.714Z,2.37
2019-03-05T08:16:03.424Z,2.15
2019-03-05T08:18:31.668Z,2.10
2019-03-05T08:20:59.945Z,1.90
2019-03-05T08:23:28.275Z,2.27
2019-03-05T08:25:56.583Z,1.95
2019-03-05T08:28:24.936Z,2.55
2019-03-05T08:30:53.247Z,2.45
2019-03-05T08:33:21.513Z,2.40
2019-03-05T08:35:49.795Z,2.50
2019-03-05T08:38:18.066Z,2.60
2019-03-05T08:40:46.327Z,3.22
2019-03-05T08:43:14.578Z,2.27
2019-03-05T08:45:42.858Z,2.02
2019-03-05T08:48:30.592Z,2.40
2019-03-05T08:50:58.927Z,2.22
2019-03-05T08:53:27.197Z,2.05
2019-03-05T08:55:55.531Z,2.60
2019-03-05T08:58:23.864Z,2.55
2019-03-05T09:00:52.170Z,2.05
2019-03-05T09:03:20.438Z,2.60
2019-03-05T09:05:48.671Z,2.15
2019-03-05T09:08:16.916Z,2.37
2019-03-05T09:10:45.206Z,2.62
2019-03-05T09:13:13.587Z,1.80
2019-03-05T09:15:41.912Z,2.10
2019-03-05T09:18:10.176Z,2.27
2019-03-05T09:20:38.458Z,2.30
2019-03-05T09:23:06.759Z,2.40
2019-03-05T09:25:35.026Z,2.90
2019-03-05T09:28:03.301Z,2.55
2019-03-05T09:30:31.602Z,2.27
2019-03-05T09:32:59.906Z,2.22
2019-03-05T09:35:28.176Z,2.37
2019-03-05T09:37:56.490Z,2.22
2019-03-05T09:40:26.861Z,2.40
2019-03-05T09:46:09.239Z,2.25
2019-03-05T09:48:37.478Z,2.15
2019-03-05T09:51:05.855Z,2.52
2019-03-05T09:53:34.093Z,2.50
2019-03-05T09:56:04.055Z,2.08
2019-03-05T09:58:32.312Z,2.37
2019-03-05T10:01:00.576Z,2.95
2019-03-05T10:03:29.022Z,1.98
2019-03-05T10:05:57.343Z,2.20
2019-03-05T10:08:32.321Z,2.20
2019-03-05T10:10:55.639Z,2.45
2019-03-05T10:19:27.144Z,2.17
2019-03-05T10:21:55.383Z,2.42
2019-03-05T10:24:23.667Z,1.92
2019-03-05T10:26:51.920Z,1.80
2019-03-05T10:29:20.264Z,1.95
2019-03-05T10:31:48.494Z,2.10
2019-03-05T10:34:16.744Z,2.00
2019-03-05T10:36:45.019Z,2.20
2019-03-05T10:39:16.560Z,2.37
2019-03-05T10:41:44.908Z,2.05
2019-03-05T10:44:13.229Z,2.33
2019-03-05T10:46:41.468Z,2.00
2019-03-05T10:49:09.755Z,1.98
2019-03-05T10:51:37.996Z,1.92
2019-03-05T10:54:06.241Z,1.90
2019-03-05T10:56:34.483Z,2.02
2019-03-05T10:59:05.261Z,1.82
2019-03-05T11:01:32.724Z,2.65
2019-03-05T11:04:00.990Z,2.20
2019-03-05T11:06:29.245Z,2.55
2019-03-05T11:08:57.503Z,2.08
2019-03-05T11:11:25.776Z,2.22
2019-03-05T11:13:54.053Z,1.67
2019-03-05T11:16:30.434Z,2.10
2019-03-05T11:18:52.434Z,2.08
2019-03-05T11:21:20.710Z,1.70
2019-03-05T11:23:48.982Z,1.95
2019-03-05T11:26:17.240Z,2.00
2019-03-05T11:28:45.562Z,2.25
2019-03-05T11:31:13.869Z,1.82
2019-03-05T11:33:42.195Z,1.85
2019-03-05T11:36:10.534Z,1.50
2019-03-05T11:38:38.796Z,1.57
2019-03-05T11:41:08.663Z,1.65
2019-03-05T11:43:37.029Z,1.90
2019-03-05T11:46:05.661Z,2.02
2019-03-05T11:48:33.934Z,1.70
2019-03-05T11:51:02.228Z,1.85
2019-03-05T11:53:30.502Z,1.77
2019-03-05T11:55:58.723Z,2.10
2019-03-05T11:58:27.825Z,1.60
2019-03-05T12:00:57.695Z,1.82
2019-03-05T12:03:25.950Z,1.82
2019-03-05T12:05:54.207Z,1.87
2019-03-05T12:08:22.491Z,1.57
2019-03-05T12:10:50.753Z,1.60
2019-03-05T12:13:20.230Z,2.00
2019-03-05T12:15:48.479Z,1.70
2019-03-05T12:18:16.795Z,1.87
2019-03-05T12:20:45.158Z,1.85
2019-03-05T12:23:13.434Z,1.95
2019-03-05T12:25:41.695Z,1.60
2019-03-05T12:28:10.997Z,1.62
2019-03-05T12:30:39.687Z,1.57
2019-03-05T12:33:07.949Z,2.05
2019-03-05T12:35:36.339Z,2.02
2019-03-05T12:38:04.777Z,1.27
2019-03-05T12:40:33.026Z,2.62
2019-03-05T12:43:01.290Z,1.57
2019-03-05T12:45:29.611Z,1.72
2019-03-05T12:47:57.871Z,1.65
2019-03-05T12:50:28.557Z,1.75
2019-03-05T12:52:57.058Z,1.95
2019-03-05T12:55:25.578Z,1.80
2019-03-05T12:57:53.953Z,1.80
2019-03-05T13:00:25.282Z,1.50
2019-03-05T13:02:53.543Z,1.57
2019-03-05T13:05:21.871Z,1.80
2019-03-05T13:07:52.495Z,2.35
2019-03-05T13:10:34.783Z,2.02
2019-03-05T13:12:59.256Z,2.02
2019-03-05T13:15:30.770Z,2.10
2019-03-05T13:17:59.015Z,2.12
2019-03-05T13:20:27.818Z,2.17
2019-03-05T13:22:56.243Z,1.82
2019-03-05T13:25:28.406Z,1.60
2019-03-05T13:27:57.720Z,1.87
2019-03-05T13:30:27.186Z,1.62
2019-03-05T13:32:59.159Z,1.82
2019-03-05T13:35:30.515Z,1.70
2019-03-05T13:37:58.802Z,1.82
2019-03-05T13:40:30.260Z,1.75
2019-03-05T13:42:59.397Z,2.20
2019-03-05T13:45:27.835Z,2.10
2019-03-05T13:47:59.627Z,1.85
2019-03-05T13:50:31.133Z,2.25
2019-03-05T13:53:02.628Z,2.77
2019-03-05T13:55:34.170Z,2.20
2019-03-05T13:58:05.695Z,1.80
2019-03-05T14:00:33.970Z,2.27
2019-03-05T14:03:05.494Z,1.60
2019-03-05T14:05:37.042Z,1.72
2019-03-05T14:08:08.556Z,2.05
2019-03-05T14:10:36.904Z,2.33
2019-03-05T14:13:06.353Z,1.82
2019-03-05T14:15:35.311Z,2.37
2019-03-05T14:18:03.588Z,2.20
2019-03-05T14:20:34.992Z,1.98
2019-03-05T14:23:01.860Z,2.35
2019-03-05T14:25:30.157Z,2.35
2019-03-05T14:27:58.491Z,2.00
2019-03-05T14:30:26.766Z,2.05
2019-03-05T14:32:55.026Z,2.35
2019-03-05T14:35:23.951Z,2.50
2019-03-05T14:37:52.320Z,2.10
2019-03-05T14:40:26.179Z,2.15
2019-03-05T14:43:07.620Z,2.25
2019-03-05T14:45:40.586Z,2.10
2019-03-05T14:48:19.767Z,2.45
2019-03-05T14:50:56.202Z,2.15
2019-03-05T14:53:32.329Z,2.30
2019-03-05T14:56:00.703Z,2.27
2019-03-05T14:58:33.621Z,2.45
2019-03-05T15:01:06.741Z,2.40
2019-03-05T15:03:35.121Z,2.47
2019-03-05T15:06:03.583Z,1.90
2019-03-05T15:08:33.559Z,2.20
2019-03-05T15:11:01.922Z,2.00
2019-03-05T15:13:32.605Z,2.35
2019-03-05T15:16:00.919Z,2.30
2019-03-05T15:18:31.207Z,2.02
2019-03-05T15:21:01.087Z,1.92
2019-03-05T15:23:29.466Z,1.90
2019-03-05T15:26:02.914Z,2.37
2019-03-05T15:28:31.221Z,2.02
2019-03-05T15:31:02.755Z,2.50
2019-03-05T15:33:41.082Z,2.35
2019-03-05T15:36:22.921Z,2.45
2019-03-05T15:38:39.415Z,2.27
2019-03-05T15:41:18.637Z,1.90
2019-03-05T15:43:49.170Z,2.30
2019-03-05T15:46:17.746Z,1.85
2019-03-05T15:48:48.188Z,2.35
2019-03-05T15:51:16.838Z,2.30
2019-03-05T15:56:14.447Z,2.05
2019-03-05T15:58:47.397Z,2.45
2019-03-05T16:01:22.502Z,1.70
2019-03-05T16:03:53.319Z,2.20
2019-03-05T16:06:23.118Z,1.67
2019-03-05T16:08:51.374Z,2.22
2019-03-05T16:11:21.360Z,2.25
2019-03-05T16:13:52.391Z,2.40
2019-03-05T16:16:19.727Z,2.12
2019-03-05T16:18:48.102Z,2.58
2019-03-05T16:21:16.527Z,1.82
2019-03-05T16:23:44.890Z,2.30
2019-03-05T16:26:13.256Z,2.12
2019-03-05T16:28:43.501Z,2.22
2019-03-05T16:31:13.212Z,2.05
2019-03-05T16:33:45.679Z,2.90
2019-03-05T16:36:15.123Z,2.20
2019-03-05T16:38:45.068Z,2.27
2019-03-05T16:41:16.948Z,2.05
2019-03-05T16:43:48.223Z,2.47
2019-03-05T16:46:18.136Z,3.02
2019-03-05T16:48:48.112Z,2.58
2019-03-05T16:51:18.006Z,2.15
2019-03-05T16:53:47.943Z,2.50
2019-03-05T16:56:17.879Z,2.60
2019-03-05T16:58:47.791Z,2.52
2019-03-05T17:01:17.696Z,2.65
2019-03-05T17:03:47.726Z,2.65
2019-03-05T17:06:17.871Z,2.67
2019-03-05T17:08:47.851Z,2.40
2019-03-05T17:11:17.803Z,2.55
2019-03-05T17:13:46.058Z,2.45
2019-03-05T17:16:14.363Z,2.62
2019-03-05T17:18:42.611Z,2.22
2019-03-05T17:21:10.876Z,2.70
2019-03-05T17:23:39.200Z,2.42
2019-03-05T17:26:07.488Z,2.37
2019-03-05T17:28:35.802Z,3.00
2019-03-05T17:31:04.295Z,2.20
2019-03-05T17:33:32.724Z,2.70
2019-03-05T17:36:00.982Z,3.00
2019-03-05T17:38:29.259Z,2.72
2019-03-05T17:40:57.540Z,2.77
2019-03-05T17:43:25.958Z,2.92
2019-03-05T17:45:54.215Z,2.47
2019-03-05T17:48:22.582Z,3.05
2019-03-05T17:50:50.841Z,3.10
2019-03-05T17:53:19.178Z,2.42
2019-03-05T17:55:47.599Z,4.00
2019-03-05T17:58:15.877Z,2.77
2019-03-05T18:00:45.857Z,3.35
2019-03-05T18:03:14.119Z,3.55
2019-03-05T18:05:42.363Z,3.27
2019-03-05T18:08:10.688Z,3.22
2019-03-05T18:10:39.006Z,2.70
2019-03-05T18:13:07.257Z,3.72
2019-03-05T18:15:35.550Z,2.45
2019-03-05T18:18:03.865Z,2.72
2019-03-05T18:20:32.384Z,3.58
2019-03-05T18:23:00.659Z,2.95
2019-03-05T18:25:28.919Z,3.10
2019-03-05T18:27:57.267Z,3.62
2019-03-05T18:30:28.316Z,3.45
2019-03-05T18:32:56.838Z,2.83
2019-03-05T18:35:25.166Z,3.47
2019-03-05T18:37:53.490Z,3.25
2019-03-05T18:40:25.904Z,3.77
2019-03-05T18:42:54.213Z,3.10
2019-03-05T18:45:27.953Z,3.70
2019-03-05T18:47:55.892Z,3.30
2019-03-05T18:50:24.867Z,3.70
2019-03-05T18:52:54.738Z,3.15
2019-03-05T18:55:25.165Z,2.95
2019-03-05T18:57:53.498Z,2.98
2019-03-05T19:00:28.214Z,3.40
2019-03-05T19:02:59.218Z,2.85
2019-03-05T19:05:27.447Z,2.67
2019-03-05T19:07:55.875Z,2.90
2019-03-05T19:10:27.074Z,2.65
2019-03-05T19:12:55.355Z,2.42
2019-03-05T19:15:25.323Z,3.00
2019-03-05T19:17:53.632Z,3.20
2019-03-05T19:20:25.246Z,2.87
2019-03-05T19:22:53.476Z,2.98
2019-03-05T19:25:24.771Z,3.30
2019-03-05T19:27:53.059Z,3.25
2019-03-05T19:30:23.457Z,2.85
2019-03-05T19:32:51.733Z,2.62
2019-03-05T19:35:19.994Z,3.12
2019-03-05T19:37:48.331Z,3.50
2019-03-05T19:40:19.530Z,3.40
2019-03-05T19:42:49.662Z,2.22
2019-03-05T19:45:18.456Z,3.17
2019-03-05T19:47:46.713Z,2.90
2019-03-05T19:50:18.039Z,2.47
2019-03-05T19:52:46.315Z,2.65
2019-03-05T19:55:19.581Z,2.83
2019-03-05T19:57:47.423Z,2.83
2019-03-05T20:00:20.693Z,3.12
2019-03-05T20:02:48.981Z,3.12
2019-03-05T20:05:17.261Z,3.17
2019-03-05T20:07:45.650Z,3.02
2019-03-05T20:10:16.989Z,3.12
2019-03-05T20:12:45.253Z,3.37
2019-03-05T20:15:16.003Z,3.27
2019-03-05T20:17:44.520Z,3.10
2019-03-05T20:20:15.133Z,3.10
2019-03-05T20:22:43.405Z,3.90
2019-03-05T20:25:14.922Z,3.45
2019-03-05T20:27:43.251Z,3.95
2019-03-05T20:30:15.474Z,3.95
2019-03-05T20:32:43.822Z,3.52
2019-03-05T20:35:12.167Z,4.28
2019-03-05T20:37:40.454Z,4.50
2019-03-05T20:42:58.131Z,8.55
2019-03-05T20:45:29.615Z,6.35
2019-03-05T20:47:57.932Z,4.83
2019-03-05T20:50:26.206Z,6.20
2019-03-05T20:52:54.550Z,8.23
2019-03-05T20:55:23.950Z,7.33
2019-03-05T20:57:52.274Z,7.87
2019-03-05T21:00:25.642Z,6.65
2019-03-05T21:02:57.771Z,5.40
2019-03-05T21:05:29.303Z,4.45
2019-03-05T21:07:57.601Z,3.70
2019-03-05T21:10:25.930Z,3.05
2019-03-05T21:12:54.330Z,3.33
2019-03-05T21:15:22.940Z,3.35
2019-03-05T21:17:53.626Z,3.70
2019-03-05T21:20:23.531Z,3.17
2019-03-05T21:22:52.367Z,3.45
2019-03-05T21:25:21.062Z,3.77
2019-03-05T21:27:49.403Z,3.70
2019-03-05T21:30:20.017Z,4.08
2019-03-05T21:32:48.299Z,3.77
2019-03-05T21:35:18.266Z,3.80
2019-03-05T21:37:46.613Z,3.37
2019-03-05T21:40:26.795Z,3.62
2019-03-05T21:42:55.032Z,4.28
2019-03-05T21:45:26.622Z,3.95
2019-03-05T21:47:54.898Z,4.53
2019-03-05T21:50:25.572Z,4.55
2019-03-05T21:52:54.096Z,4.30
2019-03-05T21:55:22.476Z,4.10
2019-03-05T21:57:50.732Z,4.50
2019-03-05T22:00:24.852Z,4.62
2019-03-05T22:02:53.628Z,4.70
2019-03-05T22:05:21.957Z,4.30
2019-03-05T22:07:50.260Z,3.80
2019-03-05T22:10:21.782Z,4.17
2019-03-05T22:12:50.250Z,3.70
2019-03-05T22:15:20.372Z,4.17
2019-03-05T22:17:49.186Z,4.20
2019-03-05T22:20:27.238Z,4.20
2019-03-05T22:22:55.506Z,4.60
2019-03-05T22:25:24.687Z,4.62
2019-03-05T22:27:52.975Z,5.30
2019-03-05T22:30:24.990Z,5.87
2019-03-05T22:32:53.306Z,6.45
2019-03-05T22:35:21.948Z,6.33
2019-03-05T22:37:50.222Z,5.15
2019-03-05T22:40:28.131Z,5.20
2019-03-05T22:42:56.392Z,4.70
2019-03-05T22:45:27.211Z,4.80
2019-03-05T22:47:55.553Z,4.58
2019-03-05T22:50:23.894Z,5.00
2019-03-05T22:52:52.186Z,5.17
2019-03-05T22:55:20.431Z,4.42
2019-03-05T22:57:48.683Z,4.78
2019-03-05T23:00:21.811Z,5.78
2019-03-05T23:02:50.075Z,5.37
2019-03-05T23:05:18.602Z,5.05
2019-03-05T23:07:46.851Z,5.92
2019-03-05T23:10:15.964Z,4.87
2019-03-05T23:12:44.243Z,5.60
2019-03-05T23:15:16.641Z,5.40
2019-03-05T23:17:45.529Z,4.95
2019-03-05T23:20:15.629Z,5.65
2019-03-05T23:22:44.223Z,6.05
2019-03-05T23:25:15.738Z,5.80
2019-03-05T23:27:43.963Z,5.55
2019-03-05T23:30:18.118Z,5.85
2019-03-05T23:35:43.123Z,6.17
2019-03-05T23:38:11.378Z,5.90
2019-03-05T23:40:39.992Z,6.67
2019-03-05T23:43:08.241Z,6.47
2019-03-05T23:45:36.498Z,6.50
2019-03-05T23:48:04.766Z,7.10
2019-03-05T23:50:33.059Z,6.92
2019-03-05T23:53:01.364Z,6.60
2019-03-05T23:55:29.984Z,6.53
2019-03-05T23:57:58.227Z,6.90
